createdAt,value
2023-03-15T00:02:36.773Z,65.64
2023-03-15T00:05:43.664Z,66.33
2023-03-15T00:08:48.051Z,66.72
2023-03-15T00:11:57.241Z,68.40
2023-03-15T00:15:00.397Z,69.78
2023-03-15T00:18:06.173Z,70.33
2023-03-15T00:21:08.964Z,72.30
2023-03-15T00:24:11.795Z,72.55
2023-03-15T00:27:14.584Z,73.24
2023-03-15T00:30:17.857Z,73.80
2023-03-15T00:33:21.740Z,74.45
2023-03-15T00:36:25.382Z,75.46
2023-03-15T00:39:28.445Z,73.32
2023-03-15T00:42:31.325Z,72.67
2023-03-15T00:45:34.159Z,72.59
2023-03-15T00:48:37.159Z,72.48
2023-03-15T00:51:39.916Z,70.50
2023-03-15T00:54:43.698Z,69.16
2023-03-15T00:57:47.383Z,68.92
2023-03-15T01:00:52.093Z,66.41
2023-03-15T01:03:55.330Z,65.23
2023-03-15T01:07:00.808Z,64.55
2023-03-15T01:10:05.408Z,63.12
2023-03-15T01:13:08.650Z,61.97
2023-03-15T01:16:13.951Z,62.67
2023-03-15T01:19:18.504Z,62.13
2023-03-15T01:22:22.259Z,61.84
2023-03-15T01:25:24.918Z,62.07
2023-03-15T01:28:28.357Z,61.60
2023-03-15T01:31:32.805Z,61.30
2023-03-15T01:34:36.406Z,61.03
2023-03-15T01:37:39.163Z,61.96
2023-03-15T01:40:45.877Z,61.06
2023-03-15T01:43:50.000Z,60.49
2023-03-15T01:46:53.565Z,61.73
2023-03-15T01:50:18.558Z,61.90
2023-03-15T01:53:27.118Z,61.46
2023-03-15T01:56:32.258Z,61.74
2023-03-15T01:59:43.630Z,61.83
2023-03-15T02:03:21.273Z,60.95
2023-03-15T02:06:26.718Z,60.98
2023-03-15T02:10:05.747Z,60.83
2023-03-15T02:13:14.528Z,61.03
2023-03-15T02:16:18.611Z,61.64
2023-03-15T02:19:48.380Z,61.58
2023-03-15T02:23:07.501Z,62.16
2023-03-15T02:26:34.560Z,62.62
2023-03-15T02:29:37.459Z,62.70
2023-03-15T02:32:41.462Z,63.43
2023-03-15T02:35:44.399Z,63.96
2023-03-15T02:38:50.109Z,63.78
2023-03-15T02:41:57.207Z,63.91
2023-03-15T02:44:59.959Z,64.32
2023-03-15T02:48:05.968Z,64.53
2023-03-15T02:51:17.596Z,64.82
2023-03-15T02:54:20.326Z,64.71
2023-03-15T02:57:23.201Z,64.25
2023-03-15T03:00:29.355Z,64.47
2023-03-15T03:03:33.513Z,64.98
2023-03-15T03:06:36.954Z,64.30
2023-03-15T03:09:41.325Z,64.27
2023-03-15T03:12:46.782Z,63.86
2023-03-15T03:15:58.628Z,64.68
2023-03-15T03:19:04.585Z,63.41
2023-03-15T03:22:08.786Z,63.67
2023-03-15T03:25:13.554Z,63.39
2023-03-15T03:28:16.313Z,63.30
2023-03-15T03:31:25.159Z,63.26
2023-03-15T03:34:29.280Z,63.47
2023-03-15T03:37:32.627Z,64.19
2023-03-15T03:40:46.229Z,64.30
2023-03-15T03:43:49.010Z,64.06
2023-03-15T03:46:52.381Z,64.37
2023-03-15T03:49:55.253Z,64.32
2023-03-15T03:52:58.288Z,64.56
2023-03-15T03:56:07.248Z,64.22
2023-03-15T03:59:11.465Z,64.54
2023-03-15T04:02:30.443Z,63.90
2023-03-15T04:05:37.569Z,64.24
2023-03-15T04:08:41.420Z,64.21
2023-03-15T04:11:47.901Z,64.49
2023-03-15T04:14:52.557Z,64.41
2023-03-15T04:17:57.095Z,64.72
2023-03-15T04:21:02.736Z,63.94
2023-03-15T04:24:07.542Z,64.96
2023-03-15T04:27:29.776Z,65.53
2023-03-15T04:31:02.022Z,67.92
2023-03-15T04:34:14.015Z,69.20
2023-03-15T04:37:32.725Z,71.01
2023-03-15T04:40:59.922Z,72.21
2023-03-15T04:44:26.688Z,74.15
2023-03-15T04:47:50.829Z,74.89
2023-03-15T04:51:22.652Z,74.61
2023-03-15T04:54:35.081Z,74.19
2023-03-15T04:57:46.622Z,74.75
2023-03-15T05:01:06.432Z,74.73
2023-03-15T05:04:27.973Z,74.62
2023-03-15T05:08:09.312Z,73.74
2023-03-15T05:11:23.741Z,74.33
2023-03-15T05:15:05.247Z,75.46
2023-03-15T05:18:26.491Z,75.72
2023-03-15T05:22:04.834Z,77.72
2023-03-15T05:25:25.966Z,77.21
2023-03-15T05:29:00.974Z,77.02
2023-03-15T05:32:39.619Z,76.21
2023-03-15T05:35:56.659Z,76.63
2023-03-15T05:39:05.484Z,75.12
2023-03-15T05:42:43.860Z,75.40
2023-03-15T05:46:06.043Z,74.88
2023-03-15T05:49:24.482Z,75.20
2023-03-15T05:52:53.461Z,72.55
2023-03-15T05:56:07.285Z,70.62
2023-03-15T05:59:42.657Z,67.86
2023-03-15T06:02:48.199Z,66.59
2023-03-15T06:06:26.676Z,66.67
2023-03-15T06:09:29.661Z,64.20
2023-03-15T06:12:32.560Z,64.11
2023-03-15T06:15:36.189Z,63.32
2023-03-15T06:18:39.844Z,64.03
2023-03-15T06:21:44.092Z,62.14
2023-03-15T06:24:53.577Z,59.48
2023-03-15T06:27:58.851Z,60.64
2023-03-15T06:31:10.237Z,59.78
2023-03-15T06:34:22.453Z,58.89
2023-03-15T06:37:34.494Z,58.71
2023-03-15T06:40:42.328Z,58.65
2023-03-15T06:43:45.033Z,58.11
2023-03-15T06:46:49.413Z,58.72
2023-03-15T06:49:54.497Z,56.57
2023-03-15T06:52:59.961Z,56.64
2023-03-15T06:56:03.874Z,56.62
2023-03-15T06:59:07.580Z,56.14
2023-03-15T07:02:18.551Z,56.40
2023-03-15T07:05:21.425Z,57.69
2023-03-15T07:08:25.758Z,56.70
2023-03-15T07:11:28.574Z,56.16
2023-03-15T07:14:31.396Z,55.64
2023-03-15T07:17:34.733Z,55.39
2023-03-15T07:20:37.920Z,54.52
2023-03-15T07:23:40.842Z,53.61
2023-03-15T07:26:44.116Z,54.15
2023-03-15T07:29:46.974Z,52.48
2023-03-15T07:32:49.890Z,51.75
2023-03-15T07:35:54.033Z,51.17
2023-03-15T07:38:56.933Z,51.21
2023-03-15T07:42:00.927Z,53.11
2023-03-15T07:45:10.391Z,53.43
2023-03-15T07:48:13.688Z,53.55
2023-03-15T07:51:17.018Z,53.28
2023-03-15T07:54:20.374Z,50.84
2023-03-15T07:57:23.080Z,52.57
2023-03-15T08:00:26.100Z,52.27
2023-03-15T08:03:28.905Z,51.44
2023-03-15T08:06:31.966Z,51.94
2023-03-15T08:09:34.966Z,50.40
2023-03-15T08:12:39.504Z,49.11
2023-03-15T08:15:47.004Z,49.03
2023-03-15T08:18:49.895Z,50.22
2023-03-15T08:21:54.082Z,49.73
2023-03-15T08:24:57.744Z,49.65
2023-03-15T08:28:01.154Z,48.61
2023-03-15T08:31:08.693Z,48.06
2023-03-15T08:34:12.335Z,48.73
2023-03-15T08:37:15.099Z,48.91
2023-03-15T08:40:26.754Z,49.14
2023-03-15T08:43:29.560Z,49.77
2023-03-15T08:46:33.504Z,50.61
2023-03-15T08:49:36.340Z,50.22
2023-03-15T08:52:39.645Z,49.14
2023-03-15T08:55:42.440Z,50.93
2023-03-15T08:58:45.844Z,51.10
2023-03-15T09:01:48.625Z,51.75
2023-03-15T09:04:53.425Z,52.33
2023-03-15T09:07:56.429Z,53.39
2023-03-15T09:10:59.971Z,53.38
2023-03-15T09:14:03.276Z,53.17
2023-03-15T09:17:06.056Z,52.80
2023-03-15T09:20:14.872Z,52.20
2023-03-15T09:23:17.642Z,54.23
2023-03-15T09:26:20.559Z,54.06
2023-03-15T09:29:23.238Z,54.18
2023-03-15T09:32:26.372Z,54.06
2023-03-15T09:35:29.675Z,52.71
2023-03-15T09:38:32.577Z,52.84
2023-03-15T09:41:55.434Z,53.76
2023-03-15T09:45:45.725Z,52.81
2023-03-15T09:48:57.065Z,53.15
2023-03-15T09:52:34.602Z,52.95
2023-03-15T09:55:37.338Z,52.56
2023-03-15T09:58:40.909Z,52.65
2023-03-15T10:01:44.290Z,53.27
2023-03-15T10:04:49.609Z,52.94
2023-03-15T10:07:53.062Z,51.61
2023-03-15T10:11:10.993Z,52.15
2023-03-15T10:14:19.940Z,51.68
2023-03-15T10:17:36.895Z,51.57
2023-03-15T10:20:52.409Z,52.02
2023-03-15T10:23:55.518Z,50.98
2023-03-15T10:27:07.129Z,51.17
2023-03-15T10:30:34.960Z,51.03
2023-03-15T10:33:39.212Z,50.20
2023-03-15T10:36:49.436Z,50.22
2023-03-15T10:39:58.632Z,50.64
2023-03-15T10:43:01.465Z,51.21
2023-03-15T10:46:11.902Z,50.39
2023-03-15T10:49:16.170Z,49.51
2023-03-15T10:52:39.028Z,50.34
2023-03-15T10:55:45.612Z,50.79
2023-03-15T10:59:05.332Z,50.21
2023-03-15T11:02:11.728Z,50.55
2023-03-15T11:05:17.300Z,50.78
2023-03-15T11:08:40.747Z,48.63
2023-03-15T11:12:01.598Z,49.35
2023-03-15T11:15:14.186Z,48.62
2023-03-15T11:18:20.270Z,49.54
2023-03-15T11:21:33.571Z,49.04
2023-03-15T11:24:36.786Z,48.78
2023-03-15T11:27:43.539Z,48.77
2023-03-15T11:30:48.628Z,48.70
2023-03-15T11:34:09.307Z,49.19
2023-03-15T11:37:21.113Z,49.19
2023-03-15T11:40:33.319Z,50.17
2023-03-15T11:43:57.112Z,49.69
2023-03-15T11:47:13.016Z,49.86
2023-03-15T11:50:19.446Z,49.71
2023-03-15T11:53:28.210Z,49.51
2023-03-15T11:56:53.455Z,49.78
2023-03-15T11:59:57.906Z,49.54
2023-03-15T12:03:26.225Z,51.08
2023-03-15T12:06:39.371Z,50.59
2023-03-15T12:09:55.700Z,51.43
2023-03-15T12:13:05.754Z,51.43
2023-03-15T12:16:12.228Z,51.43
2023-03-15T12:19:23.145Z,50.71
2023-03-15T12:22:32.662Z,50.54
2023-03-15T12:25:48.844Z,50.91
2023-03-15T12:29:24.438Z,50.20
2023-03-15T12:32:30.324Z,50.02
2023-03-15T12:35:41.984Z,49.57
2023-03-15T12:39:02.084Z,50.01
2023-03-15T12:42:05.560Z,49.32
2023-03-15T12:45:17.490Z,49.46
2023-03-15T12:48:22.092Z,48.76
2023-03-15T12:51:54.166Z,48.70
2023-03-15T12:55:18.460Z,48.49
2023-03-15T12:58:28.237Z,47.52
2023-03-15T13:01:31.692Z,47.30
2023-03-15T13:04:35.082Z,48.85
2023-03-15T13:07:58.827Z,47.15
2023-03-15T13:11:01.621Z,46.59
2023-03-15T13:14:26.125Z,46.25
2023-03-15T13:17:46.961Z,45.82
2023-03-15T13:21:26.686Z,43.96
2023-03-15T13:24:54.030Z,44.13
2023-03-15T13:28:04.105Z,43.67
2023-03-15T13:31:13.800Z,43.40
2023-03-15T13:34:25.648Z,43.59
2023-03-15T13:37:31.988Z,44.15
2023-03-15T13:40:35.675Z,43.92
2023-03-15T13:43:39.570Z,44.24
2023-03-15T13:46:42.574Z,42.09
2023-03-15T13:49:45.323Z,43.06
2023-03-15T13:52:49.483Z,42.16
2023-03-15T13:55:54.619Z,42.23
2023-03-15T13:58:58.478Z,41.63
2023-03-15T14:02:04.314Z,40.73
2023-03-15T14:05:12.637Z,41.59
2023-03-15T14:08:22.138Z,40.82
2023-03-15T14:11:25.130Z,40.98
2023-03-15T14:14:31.043Z,41.51
2023-03-15T14:17:33.816Z,40.51
2023-03-15T14:20:44.162Z,40.06
2023-03-15T14:23:49.380Z,40.89
2023-03-15T14:26:55.026Z,40.68
2023-03-15T14:30:00.553Z,40.34
2023-03-15T14:33:07.645Z,40.14
2023-03-15T14:36:47.877Z,40.13
2023-03-15T14:39:50.657Z,40.92
2023-03-15T14:42:53.745Z,41.10
2023-03-15T14:50:16.819Z,39.17
2023-03-15T14:53:23.233Z,38.47
2023-03-15T14:56:26.412Z,38.12
2023-03-15T14:59:29.133Z,39.11
2023-03-15T15:02:33.511Z,38.43
2023-03-15T15:05:36.329Z,38.57
2023-03-15T15:08:42.417Z,38.27
2023-03-15T15:11:45.117Z,38.69
2023-03-15T15:14:47.885Z,38.58
2023-03-15T15:17:50.706Z,38.46
2023-03-15T15:20:56.620Z,38.69
2023-03-15T15:24:01.418Z,39.15
2023-03-15T15:27:04.644Z,39.78
2023-03-15T15:30:16.288Z,39.42
2023-03-15T15:33:20.504Z,39.36
2023-03-15T15:36:27.728Z,40.57
2023-03-15T15:39:30.986Z,39.33
2023-03-15T15:42:33.921Z,39.69
2023-03-15T15:45:37.171Z,40.58
2023-03-15T15:48:41.464Z,42.75
2023-03-15T15:51:46.354Z,43.74
2023-03-15T15:54:49.120Z,44.91
2023-03-15T15:57:54.131Z,44.11
2023-03-15T16:00:58.828Z,44.12
2023-03-15T16:04:03.868Z,44.45
2023-03-15T16:07:10.681Z,44.29
2023-03-15T16:10:24.441Z,45.29
2023-03-15T16:13:27.330Z,43.85
2023-03-15T16:16:30.386Z,44.16
2023-03-15T16:19:33.125Z,44.07
2023-03-15T16:22:38.394Z,42.90
2023-03-15T16:25:41.774Z,41.28
2023-03-15T16:28:46.626Z,40.74
2023-03-15T16:31:51.280Z,40.69
2023-03-15T16:34:54.706Z,39.89
2023-03-15T16:37:58.622Z,40.17
2023-03-15T16:41:02.437Z,40.03
2023-03-15T16:44:14.354Z,39.22
2023-03-15T16:47:18.338Z,39.45
2023-03-15T16:50:21.725Z,38.77
2023-03-15T16:53:25.443Z,39.28
2023-03-15T16:56:32.641Z,39.67
2023-03-15T16:59:35.734Z,39.41
2023-03-15T17:02:39.483Z,39.15
2023-03-15T17:05:46.284Z,38.74
2023-03-15T17:08:50.517Z,38.93
2023-03-15T17:11:53.642Z,38.86
2023-03-15T17:14:58.959Z,39.22
2023-03-15T17:18:03.397Z,38.18
2023-03-15T17:21:14.645Z,38.70
2023-03-15T17:24:17.937Z,37.45
2023-03-15T17:27:33.242Z,37.43
2023-03-15T17:30:39.595Z,38.54
2023-03-15T17:33:44.702Z,37.92
2023-03-15T17:36:47.514Z,38.35
2023-03-15T17:39:50.937Z,39.05
2023-03-15T17:42:58.801Z,38.77
2023-03-15T17:46:01.892Z,39.14
2023-03-15T17:49:07.224Z,39.14
2023-03-15T17:52:18.030Z,38.78
2023-03-15T17:55:24.273Z,39.98
2023-03-15T17:58:27.559Z,39.60
2023-03-15T18:01:31.976Z,40.74
2023-03-15T18:04:35.114Z,41.44
2023-03-15T18:07:43.524Z,40.80
2023-03-15T18:10:52.117Z,41.20
2023-03-15T18:13:56.352Z,41.81
2023-03-15T18:16:59.567Z,41.79
2023-03-15T18:20:05.023Z,42.18
2023-03-15T18:23:11.674Z,41.88
2023-03-15T18:26:14.642Z,42.51
2023-03-15T18:29:17.362Z,42.83
2023-03-15T18:32:20.565Z,42.58
2023-03-15T18:35:31.907Z,42.59
2023-03-15T18:38:35.464Z,42.78
2023-03-15T18:41:40.133Z,43.31
2023-03-15T18:44:44.193Z,42.77
2023-03-15T18:47:47.463Z,42.78
2023-03-15T18:50:52.326Z,42.98
2023-03-15T18:53:56.589Z,43.52
2023-03-15T18:56:59.625Z,42.81
2023-03-15T19:00:07.392Z,42.88
2023-03-15T19:03:11.798Z,43.47
2023-03-15T19:06:15.219Z,43.35
2023-03-15T19:09:19.060Z,43.16
2023-03-15T19:12:22.373Z,44.19
2023-03-15T19:15:25.517Z,43.06
2023-03-15T19:18:49.659Z,43.72
2023-03-15T19:21:52.815Z,43.41
2023-03-15T19:24:55.882Z,43.66
2023-03-15T19:27:59.653Z,43.80
2023-03-15T19:31:03.571Z,43.88
2023-03-15T19:34:06.985Z,43.40
2023-03-15T19:37:11.182Z,44.12
2023-03-15T19:40:15.736Z,43.82
2023-03-15T19:43:19.983Z,44.62
2023-03-15T19:46:23.572Z,44.33
2023-03-15T19:49:26.429Z,43.84
2023-03-15T19:52:30.291Z,43.77
2023-03-15T19:55:36.069Z,43.81
2023-03-15T19:58:39.310Z,44.33
2023-03-15T20:01:42.781Z,44.77
2023-03-15T20:04:45.942Z,45.16
2023-03-15T20:07:51.782Z,45.71
2023-03-15T20:11:04.074Z,44.66
2023-03-15T20:14:07.306Z,45.22
2023-03-15T20:17:10.316Z,44.97
2023-03-15T20:20:13.989Z,44.82
2023-03-15T20:23:18.072Z,44.86
2023-03-15T20:26:22.486Z,44.78
2023-03-15T20:29:25.805Z,44.68
2023-03-15T20:32:29.949Z,44.76
2023-03-15T20:35:33.486Z,44.80
2023-03-15T20:38:37.394Z,44.81
2023-03-15T20:41:40.793Z,44.70
2023-03-15T20:44:45.329Z,44.52
2023-03-15T20:47:48.372Z,44.74
2023-03-15T20:50:56.036Z,44.78
2023-03-15T20:53:59.395Z,44.78
2023-03-15T20:57:03.760Z,44.70
2023-03-15T21:00:12.800Z,45.26
2023-03-15T21:03:17.564Z,44.89
2023-03-15T21:06:21.110Z,44.21
2023-03-15T21:09:24.202Z,45.01
2023-03-15T21:12:27.289Z,44.93
2023-03-15T21:15:31.442Z,44.18
2023-03-15T21:18:36.179Z,44.81
2023-03-15T21:21:39.083Z,44.27
2023-03-15T21:24:54.706Z,44.25
2023-03-15T21:27:59.538Z,44.97
2023-03-15T21:31:02.607Z,44.79
2023-03-15T21:34:05.420Z,44.48
2023-03-15T21:37:08.295Z,44.63
2023-03-15T21:40:13.159Z,44.81
2023-03-15T21:43:15.917Z,44.31
2023-03-15T21:46:19.003Z,44.92
2023-03-15T21:49:21.875Z,45.21
2023-03-15T21:52:26.287Z,45.07
2023-03-15T21:55:32.135Z,44.88
2023-03-15T21:58:34.900Z,45.10
2023-03-15T22:01:37.751Z,45.43
2023-03-15T22:04:44.298Z,44.99
2023-03-15T22:07:47.197Z,45.22
2023-03-15T22:10:58.305Z,45.56
2023-03-15T22:14:01.109Z,45.56
2023-03-15T22:17:04.956Z,45.96
2023-03-15T22:20:17.428Z,46.32
2023-03-15T22:23:20.379Z,46.90
2023-03-15T22:26:23.276Z,46.29
2023-03-15T22:29:26.119Z,46.73
2023-03-15T22:32:28.914Z,46.63
2023-03-15T22:35:31.725Z,47.26
2023-03-15T22:38:40.932Z,47.35
2023-03-15T22:41:43.685Z,47.54
2023-03-15T22:44:46.407Z,47.67
2023-03-15T22:47:49.423Z,48.42
2023-03-15T22:51:02.890Z,48.39
2023-03-15T22:54:06.027Z,48.38
2023-03-15T22:57:08.760Z,48.66
2023-03-15T23:00:14.225Z,48.80
2023-03-15T23:03:17.612Z,48.92
2023-03-15T23:06:20.591Z,49.26
2023-03-15T23:09:23.728Z,49.23
2023-03-15T23:12:35.927Z,49.20
2023-03-15T23:15:39.417Z,49.00
2023-03-15T23:18:43.194Z,49.00
2023-03-15T23:21:46.145Z,49.10
2023-03-15T23:24:48.837Z,48.88
2023-03-15T23:27:51.773Z,48.80
2023-03-15T23:30:54.665Z,48.82
2023-03-15T23:33:57.481Z,48.72
2023-03-15T23:37:00.223Z,48.63
2023-03-15T23:40:07.852Z,48.47
2023-03-15T23:43:10.650Z,48.34
2023-03-15T23:46:14.657Z,48.62
2023-03-15T23:49:17.426Z,48.71
2023-03-15T23:52:25.434Z,48.52
2023-03-15T23:55:28.686Z,48.32
2023-03-15T23:58:31.974Z,48.29
